Time;durP1;ratioP1;P1;durP2;ratioP2;P2;SDS_P1;SDS_P2;PMS_P1;PMS_P2;Temp;Humidity;BMP_temperature;BMP_pressure;BME280_temperature;BME280_humidity;BME280_pressure;Samples;Min_cycle;Max_cycle;Signal;HPM_P1;HPM_P2
2022/07/02 00:01:17;;;;;;;;;;;15.40;99.90;;;;;;5091301;28;19928;-78
2022/07/02 00:03:49;;;;;;;;;;;15.40;99.90;;;;;;5092603;28;19936;-78
2022/07/02 00:06:14;;;;;;;;;;;15.40;99.90;;;;;;5092821;28;19928;-78
2022/07/02 00:08:42;;;;;;;;;;;15.30;99.90;;;;;;5090858;28;19931;-78
2022/07/02 00:11:07;;;;;;;;;;;15.30;99.90;;;;;;5083429;28;20058;-78
2022/07/02 00:13:33;;;;;;;;;;;15.20;99.90;;;;;;5086725;28;20022;-78
2022/07/02 00:16:00;;;;;;;;;;;15.30;99.90;;;;;;5092353;28;19928;-79
2022/07/02 00:18:26;;;;;;;;;;;15.20;99.90;;;;;;5090871;28;19931;-78
2022/07/02 00:20:52;;;;;;;;;;;15.20;99.90;;;;;;5092379;28;19924;-78
2022/07/02 00:23:17;;;;;;;;;;;15.20;99.90;;;;;;5091771;28;19931;-79
2022/07/02 00:25:47;;;;;;;;;;;15.20;99.90;;;;;;5092266;28;19925;-79
2022/07/02 00:28:15;;;;;;;;;;;15.20;99.90;;;;;;5091985;28;19999;-79
2022/07/02 00:30:43;;;;;;;;;;;15.20;99.90;;;;;;5092212;28;19924;-79
2022/07/02 00:33:11;;;;;;;;;;;15.10;99.90;;;;;;5073437;28;20043;-78
2022/07/02 00:35:37;;;;;;;;;;;15.10;99.90;;;;;;5092178;28;19925;-79
2022/07/02 00:38:04;;;;;;;;;;;15.10;99.90;;;;;;5091813;28;20459;-78
2022/07/02 00:40:30;;;;;;;;;;;15.10;99.90;;;;;;5091885;28;19928;-78
2022/07/02 00:42:56;;;;;;;;;;;15.00;99.90;;;;;;5091759;28;19931;-78
2022/07/02 00:45:22;;;;;;;;;;;15.10;99.90;;;;;;5091753;28;19928;-78
2022/07/02 00:47:48;;;;;;;;;;;15.10;99.90;;;;;;5090348;28;19928;-79
2022/07/02 00:50:14;;;;;;;;;;;15.00;99.90;;;;;;5092023;28;19924;-78
2022/07/02 00:52:39;;;;;;;;;;;15.00;99.90;;;;;;5091397;28;19924;-78
2022/07/02 00:55:05;;;;;;;;;;;15.00;99.90;;;;;;5091234;28;20002;-78
2022/07/02 00:57:31;;;;;;;;;;;15.00;99.90;;;;;;5091397;28;20079;-78
2022/07/02 00:59:56;;;;;;;;;;;15.00;99.90;;;;;;5091592;28;19932;-78
2022/07/02 01:02:22;;;;;;;;;;;15.00;99.90;;;;;;5091307;28;20377;-78
2022/07/02 01:04:48;;;;;;;;;;;15.00;99.90;;;;;;5091571;28;19935;-79
2022/07/02 01:07:15;;;;;;;;;;;14.90;99.90;;;;;;5090952;28;20036;-79
2022/07/02 01:12:30;;;;;;;;;;;14.90;99.90;;;;;;5078417;28;19924;-78
2022/07/02 01:14:56;;;;;;;;;;;14.80;99.90;;;;;;5091292;28;20801;-78
2022/07/02 01:17:21;;;;;;;;;;;14.80;99.90;;;;;;5091559;28;20354;-78
2022/07/02 01:19:47;;;;;;;;;;;14.80;99.90;;;;;;5090333;28;19979;-78
2022/07/02 01:22:16;;;;;;;;;;;14.80;99.90;;;;;;5091111;28;19935;-79
2022/07/02 01:24:42;;;;;;;;;;;14.70;99.90;;;;;;5091080;28;19924;-79
2022/07/02 01:27:08;;;;;;;;;;;14.70;99.90;;;;;;5091010;28;19924;-78
2022/07/02 01:29:34;;;;;;;;;;;14.60;99.90;;;;;;5090867;28;19928;-78
2022/07/02 01:31:59;;;;;;;;;;;14.70;99.90;;;;;;5072437;28;19973;-79
2022/07/02 01:34:25;;;;;;;;;;;14.70;99.90;;;;;;5090845;28;19993;-79
2022/07/02 01:36:50;;;;;;;;;;;14.60;99.90;;;;;;5090947;28;20019;-78
2022/07/02 01:39:22;;;;;;;;;;;14.60;99.90;;;;;;5089681;28;19928;-78
2022/07/02 01:41:48;;;;;;;;;;;14.50;99.90;;;;;;5079261;28;19978;-78
2022/07/02 01:44:13;;;;;;;;;;;14.50;99.90;;;;;;5090025;28;19975;-78
2022/07/02 01:46:39;;;;;;;;;;;14.50;99.90;;;;;;5090890;28;19976;-78
2022/07/02 01:49:05;;;;;;;;;;;14.50;99.90;;;;;;5088463;28;20442;-78
2022/07/02 01:51:31;;;;;;;;;;;14.50;99.90;;;;;;5079459;28;19928;-78
2022/07/02 01:53:57;;;;;;;;;;;14.50;99.90;;;;;;5090055;28;19969;-79
2022/07/02 01:56:22;;;;;;;;;;;14.50;99.90;;;;;;5090528;28;19946;-78
2022/07/02 01:58:48;;;;;;;;;;;14.40;99.90;;;;;;5090668;28;19935;-79
2022/07/02 02:01:13;;;;;;;;;;;14.40;99.90;;;;;;5090174;28;19931;-79
2022/07/02 02:03:39;;;;;;;;;;;14.40;99.90;;;;;;5089054;28;19924;-78
2022/07/02 02:06:04;;;;;;;;;;;14.40;99.90;;;;;;5090041;28;20450;-79
2022/07/02 02:08:30;;;;;;;;;;;14.40;99.90;;;;;;5090464;28;19977;-78
2022/07/02 02:10:55;;;;;;;;;;;14.30;99.90;;;;;;5090266;28;20011;-78
2022/07/02 02:13:21;;;;;;;;;;;14.30;99.90;;;;;;5089551;28;19932;-79
2022/07/02 02:15:46;;;;;;;;;;;14.30;99.90;;;;;;5090131;28;19927;-79
2022/07/02 02:18:12;;;;;;;;;;;14.30;99.90;;;;;;5089906;28;20335;-79
2022/07/02 02:20:38;;;;;;;;;;;14.30;99.90;;;;;;5089998;28;19935;-79
2022/07/02 02:23:04;;;;;;;;;;;14.20;99.90;;;;;;5089368;28;19928;-78
2022/07/02 02:25:31;;;;;;;;;;;14.20;99.90;;;;;;5090269;28;20345;-79
2022/07/02 02:27:56;;;;;;;;;;;14.20;99.90;;;;;;5089477;28;19928;-79
2022/07/02 02:30:22;;;;;;;;;;;14.20;99.90;;;;;;5090118;28;20237;-78
2022/07/02 02:32:47;;;;;;;;;;;14.20;99.90;;;;;;5089937;28;19935;-78
2022/07/02 02:35:13;;;;;;;;;;;14.10;99.90;;;;;;5089898;28;19924;-79
2022/07/02 02:37:39;;;;;;;;;;;14.10;99.90;;;;;;5089701;28;19924;-79
2022/07/02 02:40:05;;;;;;;;;;;14.10;99.90;;;;;;5089817;28;20314;-79
2022/07/02 02:42:30;;;;;;;;;;;14.00;99.90;;;;;;5089614;28;19931;-79
2022/07/02 02:44:56;;;;;;;;;;;14.00;99.90;;;;;;5089748;28;19978;-79
2022/07/02 02:47:22;;;;;;;;;;;13.90;99.90;;;;;;5089246;28;19928;-79
2022/07/02 02:49:48;;;;;;;;;;;14.00;99.90;;;;;;5089834;28;19924;-79
2022/07/02 02:52:13;;;;;;;;;;;14.00;99.90;;;;;;5089025;28;19924;-79
2022/07/02 02:54:39;;;;;;;;;;;13.90;99.90;;;;;;5089734;28;19969;-78
2022/07/02 02:57:04;;;;;;;;;;;13.90;99.90;;;;;;5080732;28;20443;-79
2022/07/02 02:59:30;;;;;;;;;;;13.90;99.90;;;;;;5087972;28;19924;-79
2022/07/02 03:01:55;;;;;;;;;;;13.90;99.90;;;;;;5085514;28;19925;-79
2022/07/02 03:04:21;;;;;;;;;;;13.90;99.90;;;;;;5089441;28;20389;-79
2022/07/02 03:06:46;;;;;;;;;;;13.80;99.90;;;;;;5089633;28;19924;-79
2022/07/02 03:09:12;;;;;;;;;;;13.80;99.90;;;;;;5089532;28;19931;-78
2022/07/02 03:11:37;;;;;;;;;;;13.80;99.90;;;;;;5089323;28;19924;-79
2022/07/02 03:14:03;;;;;;;;;;;13.80;99.90;;;;;;5088835;28;20373;-78
2022/07/02 03:16:28;;;;;;;;;;;13.80;99.90;;;;;;5089797;28;19934;-79
2022/07/02 03:18:54;;;;;;;;;;;13.80;99.90;;;;;;5088741;28;19928;-78
2022/07/02 03:21:19;;;;;;;;;;;13.80;99.90;;;;;;5089283;28;19972;-79
2022/07/02 03:23:45;;;;;;;;;;;13.70;99.90;;;;;;5089266;28;19924;-79
2022/07/02 03:26:10;;;;;;;;;;;13.80;99.90;;;;;;5088970;28;19981;-79
2022/07/02 03:28:36;;;;;;;;;;;13.70;99.90;;;;;;5089635;28;19928;-79
2022/07/02 03:31:01;;;;;;;;;;;13.70;99.90;;;;;;5089158;28;19932;-79
2022/07/02 03:33:27;;;;;;;;;;;13.80;99.90;;;;;;5089175;28;19925;-79
2022/07/02 03:35:52;;;;;;;;;;;13.80;99.90;;;;;;5092097;28;19924;-79
2022/07/02 03:38:18;;;;;;;;;;;13.80;99.90;;;;;;5091956;28;20721;-79
2022/07/02 03:40:43;;;;;;;;;;;13.80;99.90;;;;;;5092873;28;19924;-78
2022/07/02 03:43:09;;;;;;;;;;;13.80;99.90;;;;;;5093053;28;19928;-79
2022/07/02 03:45:34;;;;;;;;;;;13.70;99.90;;;;;;5091336;28;20462;-78
2022/07/02 03:48:00;;;;;;;;;;;13.80;99.90;;;;;;5092670;28;19977;-79
2022/07/02 03:50:26;;;;;;;;;;;13.80;99.90;;;;;;5092998;28;20389;-79
2022/07/02 03:52:51;;;;;;;;;;;13.90;99.90;;;;;;5091506;28;19931;-79
2022/07/02 03:55:17;;;;;;;;;;;13.90;99.90;;;;;;5092705;28;19924;-79
2022/07/02 03:57:42;;;;;;;;;;;13.90;99.90;;;;;;5092227;28;19932;-79
2022/07/02 04:00:08;;;;;;;;;;;14.00;99.90;;;;;;5092736;28;20417;-79
2022/07/02 04:02:34;;;;;;;;;;;14.00;99.90;;;;;;5092424;28;19979;-79
2022/07/02 04:04:59;;;;;;;;;;;14.10;99.90;;;;;;5091308;28;20020;-79
2022/07/02 04:07:25;;;;;;;;;;;14.10;99.90;;;;;;5092481;28;19931;-79
2022/07/02 04:09:50;;;;;;;;;;;14.10;99.90;;;;;;5072954;28;20279;-79
2022/07/02 04:12:16;;;;;;;;;;;14.20;99.90;;;;;;5075525;28;20382;-79
2022/07/02 04:14:41;;;;;;;;;;;14.20;99.90;;;;;;5078957;28;20646;-79
2022/07/02 04:17:07;;;;;;;;;;;14.20;99.90;;;;;;5087473;28;20424;-79
2022/07/02 04:19:32;;;;;;;;;;;14.20;99.90;;;;;;5082017;28;19982;-79
2022/07/02 04:22:01;;;;;;;;;;;14.30;99.90;;;;;;5092159;28;19971;-79
2022/07/02 04:24:27;;;;;;;;;;;14.30;99.90;;;;;;5092372;28;20635;-79
2022/07/02 04:26:53;;;;;;;;;;;14.30;99.90;;;;;;5091528;28;20019;-79
2022/07/02 04:29:18;;;;;;;;;;;14.40;99.90;;;;;;5092249;28;20026;-79
2022/07/02 04:31:44;;;;;;;;;;;14.40;99.90;;;;;;5092163;28;20335;-79
2022/07/02 04:34:09;;;;;;;;;;;14.40;99.90;;;;;;5092051;28;19949;-79
2022/07/02 04:36:36;;;;;;;;;;;14.50;99.90;;;;;;5092078;28;19924;-79
2022/07/02 04:39:02;;;;;;;;;;;14.50;99.90;;;;;;5091860;28;19935;-79
2022/07/02 04:41:28;;;;;;;;;;;14.50;99.90;;;;;;5091688;28;19924;-79
2022/07/02 04:43:54;;;;;;;;;;;14.60;99.90;;;;;;5091850;28;19930;-79
2022/07/02 04:46:19;;;;;;;;;;;14.60;99.90;;;;;;5091435;28;20666;-79
2022/07/02 04:48:45;;;;;;;;;;;14.70;99.90;;;;;;5090302;28;19924;-79
2022/07/02 04:51:10;;;;;;;;;;;14.70;99.90;;;;;;5091763;28;19924;-79
2022/07/02 04:53:36;;;;;;;;;;;14.70;99.90;;;;;;5091808;28;19924;-78
2022/07/02 04:56:02;;;;;;;;;;;14.80;99.90;;;;;;5091501;28;19935;-79
2022/07/02 04:58:28;;;;;;;;;;;14.80;99.90;;;;;;5091500;28;19931;-79
2022/07/02 05:00:53;;;;;;;;;;;14.90;99.90;;;;;;5091415;28;20014;-79
2022/07/02 05:03:19;;;;;;;;;;;14.90;99.90;;;;;;5090658;28;19927;-79
2022/07/02 05:05:44;;;;;;;;;;;14.90;99.90;;;;;;5091632;28;19924;-78
2022/07/02 05:08:10;;;;;;;;;;;15.00;99.90;;;;;;5091274;28;20344;-79
2022/07/02 05:10:35;;;;;;;;;;;15.10;99.90;;;;;;5091211;28;19938;-78
2022/07/02 05:13:01;;;;;;;;;;;15.10;99.90;;;;;;5090888;28;20270;-78
2022/07/02 05:15:26;;;;;;;;;;;15.20;99.90;;;;;;5091344;28;20429;-79
2022/07/02 05:17:52;;;;;;;;;;;15.30;99.90;;;;;;5091067;28;19938;-79
2022/07/02 05:20:17;;;;;;;;;;;15.30;99.90;;;;;;5090804;28;19924;-79
2022/07/02 05:22:43;;;;;;;;;;;15.40;99.90;;;;;;5091084;28;19924;-78
2022/07/02 05:25:08;;;;;;;;;;;15.50;99.90;;;;;;5091017;28;19924;-79
2022/07/02 05:27:34;;;;;;;;;;;15.50;99.90;;;;;;5089831;28;19928;-79
2022/07/02 05:29:59;;;;;;;;;;;15.60;99.90;;;;;;5090183;28;19976;-79
2022/07/02 05:32:25;;;;;;;;;;;15.60;99.90;;;;;;5090390;28;20022;-79
2022/07/02 05:34:50;;;;;;;;;;;15.70;99.90;;;;;;5090641;28;20294;-79
2022/07/02 05:37:16;;;;;;;;;;;15.70;99.90;;;;;;5090942;28;19931;-79
2022/07/02 05:39:41;;;;;;;;;;;15.70;99.90;;;;;;5090728;28;19972;-79
2022/07/02 05:42:07;;;;;;;;;;;15.70;99.90;;;;;;5090194;28;19928;-79
2022/07/02 05:44:33;;;;;;;;;;;15.80;99.90;;;;;;5090864;28;19978;-78
2022/07/02 05:46:58;;;;;;;;;;;15.80;99.90;;;;;;5088863;28;19931;-79
2022/07/02 05:49:24;;;;;;;;;;;15.80;99.90;;;;;;5090170;28;19931;-79
2022/07/02 05:51:49;;;;;;;;;;;15.80;99.90;;;;;;5090463;28;19931;-78
2022/07/02 05:54:15;;;;;;;;;;;15.90;99.90;;;;;;5090263;28;20021;-79
2022/07/02 05:56:40;;;;;;;;;;;15.90;99.90;;;;;;5090128;28;19928;-78
2022/07/02 05:59:06;;;;;;;;;;;15.90;99.90;;;;;;5089564;28;20304;-79
2022/07/02 06:01:31;;;;;;;;;;;16.00;99.90;;;;;;5090287;28;20583;-78
2022/07/02 06:03:57;;;;;;;;;;;16.00;99.90;;;;;;5090400;28;19928;-79
2022/07/02 06:09:06;;;;;;;;;;;16.00;99.90;;;;;;5078287;28;19972;-78
2022/07/02 06:11:32;;;;;;;;;;;16.10;99.90;;;;;;5090381;28;20024;-78
2022/07/02 06:13:57;;;;;;;;;;;16.10;99.90;;;;;;5089086;28;19924;-78
2022/07/02 06:16:23;;;;;;;;;;;16.10;99.90;;;;;;5089398;28;19924;-78
2022/07/02 06:18:48;;;;;;;;;;;16.20;99.90;;;;;;5090104;28;19934;-78
2022/07/02 06:21:14;;;;;;;;;;;16.30;99.90;;;;;;5089893;28;20010;-78
2022/07/02 06:23:39;;;;;;;;;;;16.30;99.90;;;;;;5090317;28;19979;-79
2022/07/02 06:26:05;;;;;;;;;;;16.30;99.90;;;;;;5089816;28;20027;-78
2022/07/02 06:28:31;;;;;;;;;;;16.40;99.90;;;;;;5089847;28;19924;-78
2022/07/02 06:30:56;;;;;;;;;;;16.50;99.90;;;;;;5089790;28;19934;-78
2022/07/02 06:33:22;;;;;;;;;;;16.50;99.90;;;;;;5082743;28;19928;-78
2022/07/02 06:35:47;;;;;;;;;;;16.60;99.90;;;;;;5083881;28;19924;-78
2022/07/02 06:38:13;;;;;;;;;;;16.70;99.90;;;;;;5089931;28;20015;-78
2022/07/02 06:40:38;;;;;;;;;;;16.70;99.90;;;;;;5089683;28;19966;-78
2022/07/02 06:43:04;;;;;;;;;;;16.80;99.90;;;;;;5088437;28;20587;-78
2022/07/02 06:45:29;;;;;;;;;;;16.80;99.90;;;;;;5089618;28;19977;-78
2022/07/02 06:47:55;;;;;;;;;;;16.90;99.90;;;;;;5089987;28;19924;-78
2022/07/02 06:50:20;;;;;;;;;;;16.90;99.90;;;;;;5088954;28;19969;-78
2022/07/02 06:52:46;;;;;;;;;;;17.00;99.90;;;;;;5088738;28;19975;-78
2022/07/02 06:55:12;;;;;;;;;;;17.10;99.90;;;;;;5088556;28;20019;-78
2022/07/02 06:57:38;;;;;;;;;;;17.00;99.90;;;;;;5089897;28;19978;-78
2022/07/02 07:00:04;;;;;;;;;;;17.10;99.90;;;;;;5089495;28;19925;-77
2022/07/02 07:02:30;;;;;;;;;;;17.10;99.90;;;;;;5089350;28;19977;-78
2022/07/02 07:04:55;;;;;;;;;;;17.20;99.90;;;;;;5089398;28;20314;-78
2022/07/02 07:07:27;;;;;;;;;;;17.30;99.90;;;;;;5087130;28;19928;-79
2022/07/02 07:09:52;;;;;;;;;;;17.30;99.90;;;;;;5089446;28;19932;-79
2022/07/02 07:12:18;;;;;;;;;;;17.40;99.90;;;;;;5084495;28;20390;-79
2022/07/02 07:14:43;;;;;;;;;;;17.50;99.90;;;;;;5087452;28;19936;-79
2022/07/02 07:17:09;;;;;;;;;;;17.50;99.90;;;;;;5085125;28;19931;-79
2022/07/02 07:19:34;;;;;;;;;;;17.60;99.90;;;;;;5085733;28;20290;-79
2022/07/02 07:22:00;;;;;;;;;;;17.60;99.90;;;;;;5092419;28;20238;-79
2022/07/02 07:24:26;;;;;;;;;;;17.70;99.90;;;;;;5089707;28;19928;-79
2022/07/02 07:26:52;;;;;;;;;;;17.80;99.90;;;;;;5091978;28;19931;-79
2022/07/02 07:29:17;;;;;;;;;;;17.80;99.90;;;;;;5085155;28;19925;-79
2022/07/02 07:31:43;;;;;;;;;;;17.80;99.90;;;;;;5090727;28;19924;-79
2022/07/02 07:34:09;;;;;;;;;;;17.90;99.90;;;;;;5092117;28;19924;-79
2022/07/02 07:36:35;;;;;;;;;;;17.90;99.90;;;;;;5092582;28;19924;-79
2022/07/02 07:39:02;;;;;;;;;;;17.90;99.90;;;;;;5091497;28;19928;-79
2022/07/02 07:41:28;;;;;;;;;;;18.00;99.90;;;;;;5090493;28;19924;-79
2022/07/02 07:43:53;;;;;;;;;;;18.10;99.90;;;;;;5091607;28;20030;-79
2022/07/02 07:46:19;;;;;;;;;;;18.10;99.90;;;;;;5091745;28;19943;-79
2022/07/02 07:48:45;;;;;;;;;;;18.20;99.90;;;;;;5087414;28;19947;-79
2022/07/02 07:51:11;;;;;;;;;;;18.30;99.90;;;;;;5091839;28;19927;-79
2022/07/02 07:53:37;;;;;;;;;;;18.30;99.90;;;;;;5092275;28;19931;-77
2022/07/02 07:56:02;;;;;;;;;;;18.40;99.90;;;;;;5091670;28;20010;-74
2022/07/02 07:58:29;;;;;;;;;;;18.40;99.90;;;;;;5092960;28;19924;-75
2022/07/02 08:00:55;;;;;;;;;;;18.50;99.90;;;;;;5083025;28;19930;-75
2022/07/02 08:03:21;;;;;;;;;;;18.50;99.90;;;;;;5091401;28;19928;-74
2022/07/02 08:05:47;;;;;;;;;;;18.50;99.90;;;;;;5092208;28;20390;-75
2022/07/02 08:08:13;;;;;;;;;;;18.60;99.90;;;;;;5092581;28;20015;-75
2022/07/02 08:10:39;;;;;;;;;;;18.70;99.90;;;;;;5092422;28;19928;-75
2022/07/02 08:13:04;;;;;;;;;;;18.80;99.90;;;;;;5102063;28;19931;-75
2022/07/02 08:15:30;;;;;;;;;;;18.80;99.90;;;;;;5090154;28;19928;-75
2022/07/02 08:17:56;;;;;;;;;;;18.90;99.90;;;;;;5090496;28;19927;-75
2022/07/02 08:20:21;;;;;;;;;;;18.90;99.90;;;;;;5096817;28;19970;-75
2022/07/02 08:22:49;;;;;;;;;;;19.00;99.90;;;;;;5090891;28;19924;-75
2022/07/02 08:25:15;;;;;;;;;;;19.10;99.90;;;;;;5088000;28;19924;-75
2022/07/02 08:27:43;;;;;;;;;;;19.20;99.90;;;;;;5100385;28;20475;-76
2022/07/02 08:30:09;;;;;;;;;;;19.20;99.90;;;;;;5091806;28;19932;-76
2022/07/02 08:32:35;;;;;;;;;;;19.30;99.90;;;;;;5100707;28;19938;-76
2022/07/02 08:35:00;;;;;;;;;;;19.40;99.90;;;;;;5091384;28;19924;-75
2022/07/02 08:37:26;;;;;;;;;;;19.50;99.90;;;;;;5092038;28;19925;-75
2022/07/02 08:39:52;;;;;;;;;;;19.60;98.80;;;;;;5090017;28;19957;-76
2022/07/02 08:42:23;;;;;;;;;;;19.60;97.70;;;;;;5097036;28;19924;-75
2022/07/02 08:44:50;;;;;;;;;;;19.60;97.70;;;;;;5093109;28;19932;-76
2022/07/02 08:47:16;;;;;;;;;;;19.70;97.40;;;;;;5092034;28;19959;-76
2022/07/02 08:49:43;;;;;;;;;;;19.70;97.70;;;;;;5090017;28;19962;-75
2022/07/02 08:52:09;;;;;;;;;;;19.70;97.60;;;;;;5103595;28;19946;-75
2022/07/02 08:54:35;;;;;;;;;;;19.70;97.70;;;;;;5091421;28;19932;-75
2022/07/02 08:57:02;;;;;;;;;;;19.80;97.40;;;;;;5088437;28;20023;-75
2022/07/02 08:59:29;;;;;;;;;;;19.90;96.60;;;;;;5091190;28;19928;-75
2022/07/02 09:01:55;;;;;;;;;;;19.90;97.40;;;;;;5091220;28;19924;-75
2022/07/02 09:04:22;;;;;;;;;;;20.00;96.80;;;;;;5091190;28;19969;-75
2022/07/02 09:06:49;;;;;;;;;;;20.10;95.30;;;;;;5094453;28;19924;-75
2022/07/02 09:09:15;;;;;;;;;;;20.20;96.30;;;;;;5091116;28;20023;-75
2022/07/02 09:11:41;;;;;;;;;;;20.30;95.90;;;;;;5087533;28;20290;-76
2022/07/02 09:14:07;;;;;;;;;;;20.40;96.50;;;;;;5092588;28;19924;-75
2022/07/02 09:16:33;;;;;;;;;;;20.50;93.90;;;;;;5090726;28;20388;-75
2022/07/02 09:18:59;;;;;;;;;;;20.50;93.50;;;;;;5089728;28;19932;-74
2022/07/02 09:21:24;;;;;;;;;;;20.60;93.20;;;;;;5089020;28;19969;-74
2022/07/02 09:23:50;;;;;;;;;;;20.60;92.50;;;;;;5091931;28;19982;-74
2022/07/02 09:26:16;;;;;;;;;;;20.60;92.90;;;;;;5094701;28;19931;-75
2022/07/02 09:28:50;;;;;;;;;;;20.70;92.90;;;;;;5091030;28;19931;-75
2022/07/02 09:31:15;;;;;;;;;;;20.80;92.80;;;;;;5090630;28;19948;-75
2022/07/02 09:33:41;;;;;;;;;;;21.00;91.10;;;;;;5090665;28;20385;-75
2022/07/02 09:36:11;;;;;;;;;;;21.20;91.40;;;;;;5093139;28;19990;-75
2022/07/02 09:38:44;;;;;;;;;;;21.50;91.40;;;;;;5090626;28;19924;-75
2022/07/02 09:41:10;;;;;;;;;;;21.80;90.80;;;;;;5090799;28;20037;-75
2022/07/02 09:43:38;;;;;;;0.97;0.20;;;22.20;90.50;;;;;;5090328;28;19924;-75
2022/07/02 09:46:14;;;;;;;2.33;0.10;;;22.50;88.50;;;;;;5088610;28;20289;-75
2022/07/02 09:48:40;;;;;;;3.00;0.20;;;22.80;87.00;;;;;;5090290;28;20094;-75
2022/07/02 09:51:05;;;;;;;1.65;0.10;;;23.00;87.90;;;;;;5097302;28;20063;-75
2022/07/02 09:53:32;;;;;;;4.72;0.30;;;23.20;86.40;;;;;;5090429;28;20039;-75
2022/07/02 09:55:57;;;;;;;0.82;0.10;;;23.40;81.90;;;;;;5091077;28;20069;-75
2022/07/02 09:58:25;;;;;;;0.30;0.00;;;23.50;81.90;;;;;;5090330;28;20449;-75
2022/07/02 10:00:51;;;;;;;2.25;0.20;;;23.70;83.00;;;;;;5094149;28;20074;-75
2022/07/02 10:03:16;;;;;;;0.52;0.10;;;23.80;82.30;;;;;;5089771;28;20067;-75
2022/07/02 10:05:45;;;;;;;1.90;0.10;;;23.90;79.30;;;;;;5088532;28;20040;-75
2022/07/02 10:08:12;;;;;;;1.35;0.22;;;24.10;80.00;;;;;;5089684;28;20047;-75
2022/07/02 10:10:41;;;;;;;0.63;0.08;;;24.30;77.60;;;;;;5090660;28;20044;-75
2022/07/02 10:13:12;;;;;;;1.98;0.47;;;24.50;78.70;;;;;;5086192;28;20048;-76
2022/07/02 10:15:48;;;;;;;1.17;0.10;;;24.60;77.90;;;;;;5089588;28;20086;-75
2022/07/02 10:18:14;;;;;;;0.13;0.03;;;24.70;73.00;;;;;;5089813;28;20036;-76
2022/07/02 10:20:40;;;;;;;0.75;0.10;;;24.80;72.80;;;;;;5090089;28;20113;-74
2022/07/02 10:23:07;;;;;;;1.65;0.30;;;24.90;73.20;;;;;;5089637;28;20048;-74
2022/07/02 10:25:34;;;;;;;0.75;0.08;;;25.10;74.30;;;;;;5096751;28;20436;-74
2022/07/02 10:28:00;;;;;;;2.65;0.17;;;25.30;70.70;;;;;;5089128;28;20048;-74
2022/07/02 10:30:31;;;;;;;4.25;0.25;;;25.40;71.90;;;;;;5088564;28;20047;-74
2022/07/02 10:33:02;;;;;;;1.73;0.10;;;25.70;71.40;;;;;;5092936;28;20043;-73
2022/07/02 10:35:29;;;;;;;2.30;0.10;;;26.00;70.60;;;;;;5091533;28;20039;-73
2022/07/02 10:37:59;;;;;;;12.90;1.15;;;26.00;70.50;;;;;;5089721;28;20048;-74
2022/07/02 10:40:25;;;;;;;1.38;0.10;;;26.20;69.30;;;;;;5089402;28;20054;-74
2022/07/02 10:42:52;;;;;;;2.08;0.20;;;26.20;67.90;;;;;;5092518;28;20038;-74
2022/07/02 10:45:20;;;;;;;2.10;0.10;;;26.20;67.10;;;;;;5086528;28;20044;-73
2022/07/02 10:48:05;;;;;;;3.80;0.20;;;26.30;65.10;;;;;;5097701;28;20051;-73
2022/07/02 10:50:34;;;;;;;5.70;0.20;;;26.40;66.20;;;;;;5089447;28;20067;-75
2022/07/02 10:53:10;;;;;;;1.33;0.47;;;26.50;66.00;;;;;;5089363;28;20093;-73
2022/07/02 10:55:37;;;;;;;1.45;0.10;;;26.60;66.80;;;;;;5084430;28;20044;-74
2022/07/02 10:58:07;;;;;;;1.05;0.10;;;26.50;65.00;;;;;;5085510;28;20480;-74
2022/07/02 11:00:35;;;;;;;1.13;0.10;;;26.30;66.10;;;;;;5087799;28;20471;-74
2022/07/02 11:03:33;;;;;;;1.42;0.10;;;26.30;64.90;;;;;;5087492;28;20928;-73
2022/07/02 11:06:05;;;;;;;3.10;0.10;;;26.30;62.30;;;;;;5052151;28;20460;-73
2022/07/02 11:09:04;;;;;;;0.73;0.20;;;26.50;64.20;;;;;;5087524;28;20059;-73
2022/07/02 11:11:35;;;;;;;2.33;0.15;;;27.00;63.80;;;;;;5060755;28;20101;-73
2022/07/02 11:14:03;;;;;;;1.45;0.13;;;27.40;63.00;;;;;;5087544;28;20043;-74
2022/07/02 11:16:38;;;;;;;2.08;0.10;;;27.50;59.50;;;;;;5086720;28;20742;-73
2022/07/02 11:19:05;;;;;;;0.80;0.20;;;27.60;62.50;;;;;;5087915;28;20036;-73
2022/07/02 11:21:31;;;;;;;1.17;0.10;;;27.60;61.60;;;;;;5087072;28;20048;-73
2022/07/02 11:23:57;;;;;;;2.15;0.20;;;27.50;59.30;;;;;;5084259;28;20371;-73
2022/07/02 11:26:26;;;;;;;1.02;0.10;;;27.30;59.50;;;;;;5086270;28;20740;-73
2022/07/02 11:28:52;;;;;;;0.90;0.10;;;27.30;61.40;;;;;;5087985;28;20498;-73
2022/07/02 11:31:21;;;;;;;3.10;0.20;;;27.30;59.00;;;;;;5080700;28;20062;-73
2022/07/02 11:33:52;;;;;;;0.90;0.13;;;27.20;58.30;;;;;;5077137;28;20402;-73
2022/07/02 11:36:19;;;;;;;1.05;0.10;;;27.00;58.70;;;;;;5077473;28;20409;-73
2022/07/02 11:38:46;;;;;;;1.50;0.10;;;26.90;58.40;;;;;;5086339;28;20410;-73
2022/07/02 11:41:34;;;;;;;1.30;0.10;;;26.90;58.30;;;;;;5088736;28;20970;-73
2022/07/02 11:44:11;;;;;;;0.98;0.10;;;27.10;56.60;;;;;;5088208;28;20371;-73
2022/07/02 11:46:36;;;;;;;1.75;0.20;;;27.30;58.50;;;;;;5088273;28;20051;-74
2022/07/02 11:49:02;;;;;;;1.70;0.10;;;27.50;58.40;;;;;;5088949;28;20052;-73
2022/07/02 11:51:28;;;;;;;0.47;0.10;;;27.70;58.20;;;;;;5088626;28;20091;-74
2022/07/02 11:54:02;;;;;;;1.13;0.20;;;28.10;56.60;;;;;;5090482;28;20051;-74
2022/07/02 11:56:29;;;;;;;0.85;0.10;;;28.40;56.80;;;;;;5089862;28;20410;-73
2022/07/02 11:58:55;;;;;;;0.30;0.08;;;28.70;57.30;;;;;;5092379;28;20474;-73
2022/07/02 12:01:26;;;;;;;10.27;0.82;;;28.70;56.30;;;;;;5091901;28;20046;-74
2022/07/02 12:03:55;;;;;;;4.10;0.22;;;28.40;55.30;;;;;;5091084;28;20406;-75
2022/07/02 12:06:23;;;;;;;28.50;2.78;;;28.10;55.40;;;;;;5099064;28;20418;-74
2022/07/02 12:08:52;;;;;;;115.57;9.32;;;27.90;55.40;;;;;;5090695;28;20802;-74
2022/07/02 12:11:19;;;;;;;85.15;6.97;;;27.80;55.80;;;;;;5090758;28;20906;-74
2022/07/02 12:13:46;;;;;;;29.17;1.88;;;28.00;54.30;;;;;;5090844;28;20822;-74
2022/07/02 12:16:20;;;;;;;76.63;5.53;;;28.20;55.40;;;;;;5099475;28;20426;-73
2022/07/02 12:18:57;;;;;;;17.13;1.15;;;28.20;54.60;;;;;;5090533;28;20405;-74
2022/07/02 12:21:48;;;;;;;113.13;8.63;;;28.10;56.10;;;;;;5078984;28;20846;-74
2022/07/02 12:24:36;;;;;;;11.55;0.32;;;28.00;55.10;;;;;;5093240;28;20426;-74
2022/07/02 12:27:07;;;;;;;113.73;5.87;;;27.90;54.50;;;;;;5085142;28;21001;-73
2022/07/02 12:29:53;;;;;;;68.20;4.40;;;27.80;56.50;;;;;;5089241;28;20402;-73
2022/07/02 12:32:23;;;;;;;27.20;1.13;;;27.70;56.20;;;;;;5089835;28;20422;-73
2022/07/02 12:34:57;;;;;;;18.35;1.15;;;27.50;54.60;;;;;;5090627;28;20805;-74
2022/07/02 12:37:43;;;;;;;7.07;0.70;;;27.50;55.10;;;;;;5083002;28;20805;-74
2022/07/02 12:40:17;;;;;;;31.20;2.47;;;27.40;55.00;;;;;;5091478;28;20437;-74
2022/07/02 12:43:01;;;;;;;50.88;4.05;;;27.30;55.50;;;;;;5090181;28;20433;-74
2022/07/02 12:45:38;;;;;;;4.05;0.40;;;27.10;54.90;;;;;;5089713;28;20406;-74
2022/07/02 12:48:16;;;;;;;3.78;0.17;;;27.20;55.50;;;;;;5088762;28;20426;-74
2022/07/02 12:50:43;;;;;;;;;;;27.60;55.20;;;;;;5092097;28;20036;-74
2022/07/02 12:53:10;;;;;;;;;;;27.70;54.80;;;;;;5091151;28;20305;-74
2022/07/02 12:55:37;;;;;;;;;;;27.50;54.40;;;;;;5090641;28;19920;-74
2022/07/02 12:58:04;;;;;;;;;;;27.30;55.30;;;;;;5091518;28;19932;-74
2022/07/02 13:00:30;;;;;;;;;;;27.10;52.90;;;;;;5091546;28;19927;-73
2022/07/02 13:03:12;;;;;;;;;;;26.80;55.10;;;;;;5088726;28;20483;-74
2022/07/02 13:05:41;;;;;;;;;;;26.70;54.40;;;;;;5091836;28;19973;-74
2022/07/02 13:08:07;;;;;;;;;;;26.60;55.40;;;;;;5090801;28;19920;-74
2022/07/02 13:10:33;;;;;;;;;;;26.40;54.70;;;;;;5091414;28;20416;-74
2022/07/02 13:12:58;;;;;;;;;;;26.20;55.70;;;;;;5089880;28;20015;-74
2022/07/02 13:15:24;;;;;;;;;;;26.10;56.20;;;;;;5091337;28;20358;-74
2022/07/02 13:17:49;;;;;;;;;;;26.00;56.50;;;;;;5091221;28;19924;-73
2022/07/02 13:20:15;;;;;;;;;;;26.00;56.40;;;;;;5096277;28;20017;-74
2022/07/02 13:22:41;;;;;;;;;;;26.00;56.00;;;;;;5091574;28;19972;-74
2022/07/02 13:25:08;;;;;;;;;;;26.00;56.90;;;;;;5091241;28;19927;-74
2022/07/02 13:27:33;;;;;;;;;;;26.10;56.30;;;;;;5099546;28;19924;-74
2022/07/02 13:30:00;;;;;;;;;;;26.20;56.30;;;;;;5088607;28;19927;-74
2022/07/02 13:32:26;;;;;;;;;;;26.50;55.60;;;;;;5101389;28;19920;-74
2022/07/02 13:34:51;;;;;;;;;;;27.00;55.00;;;;;;5091011;28;19920;-75
2022/07/02 13:37:17;;;;;;;;;;;27.50;54.20;;;;;;5092702;28;19943;-73
2022/07/02 13:39:43;;;;;;;1.83;0.10;;;28.20;54.90;;;;;;5089895;28;19926;-73
2022/07/02 13:42:10;;;;;;;3.58;0.20;;;28.90;55.60;;;;;;5087793;28;20959;-73
2022/07/02 13:44:36;;;;;;;1.10;0.10;;;29.20;53.70;;;;;;5089146;28;20759;-73
2022/07/02 13:47:02;;;;;;;1.38;0.15;;;29.10;53.10;;;;;;5088415;28;20505;-73
2022/07/02 13:49:27;;;;;;;0.68;0.10;;;28.60;53.20;;;;;;5088093;28;20406;-73
2022/07/02 13:51:54;;;;;;;1.08;0.20;;;28.20;53.30;;;;;;5088564;28;20529;-73
2022/07/02 13:54:20;;;;;;;1.77;0.20;;;27.90;54.20;;;;;;5087125;28;20824;-73
2022/07/02 13:56:46;;;;;;;1.08;0.10;;;27.70;54.60;;;;;;5088565;28;20398;-73